sensor_id;sensor_type;location;lat;lon;timestamp;temperature;humidity
54846;DHT22;53889;50.084;8.646;2022-09-11T00:01:25;16.00;99.90
54846;DHT22;53889;50.084;8.646;2022-09-11T00:03:53;16.00;99.90
54846;DHT22;53889;50.084;8.646;2022-09-11T00:06:21;15.90;99.90
54846;DHT22;53889;50.084;8.646;2022-09-11T00:08:52;15.90;99.90
54846;DHT22;53889;50.084;8.646;2022-09-11T00:11:21;15.90;99.90
54846;DHT22;53889;50.084;8.646;2022-09-11T00:13:50;15.90;99.90
54846;DHT22;53889;50.084;8.646;2022-09-11T00:16:20;16.00;99.90
54846;DHT22;53889;50.084;8.646;2022-09-11T00:18:48;15.90;99.90
54846;DHT22;53889;50.084;8.646;2022-09-11T00:21:16;15.90;99.90
54846;DHT22;53889;50.084;8.646;2022-09-11T00:23:43;15.90;99.90
54846;DHT22;53889;50.084;8.646;2022-09-11T00:26:10;15.90;99.90
54846;DHT22;53889;50.084;8.646;2022-09-11T00:28:37;15.90;99.90
54846;DHT22;53889;50.084;8.646;2022-09-11T00:31:06;15.70;99.90
54846;DHT22;53889;50.084;8.646;2022-09-11T00:33:34;15.90;99.90
54846;DHT22;53889;50.084;8.646;2022-09-11T00:36:05;15.20;99.90
54846;DHT22;53889;50.084;8.646;2022-09-11T00:38:36;15.90;99.90
54846;DHT22;53889;50.084;8.646;2022-09-11T00:41:06;15.90;99.90
54846;DHT22;53889;50.084;8.646;2022-09-11T00:43:54;16.00;99.90
54846;DHT22;53889;50.084;8.646;2022-09-11T00:46:24;16.00;99.90
54846;DHT22;53889;50.084;8.646;2022-09-11T00:48:51;16.00;99.90
54846;DHT22;53889;50.084;8.646;2022-09-11T00:51:20;16.00;99.90
54846;DHT22;53889;50.084;8.646;2022-09-11T00:53:52;16.00;99.90
54846;DHT22;53889;50.084;8.646;2022-09-11T00:56:20;16.10;99.90
54846;DHT22;53889;50.084;8.646;2022-09-11T00:58:48;16.10;99.90
54846;DHT22;53889;50.084;8.646;2022-09-11T01:01:16;16.20;99.90
54846;DHT22;53889;50.084;8.646;2022-09-11T01:03:43;16.20;99.90
54846;DHT22;53889;50.084;8.646;2022-09-11T01:06:09;16.20;99.90
54846;DHT22;53889;50.084;8.646;2022-09-11T01:08:37;16.20;99.90
54846;DHT22;53889;50.084;8.646;2022-09-11T01:11:16;16.10;99.90
54846;DHT22;53889;50.084;8.646;2022-09-11T01:13:50;16.20;99.90
54846;DHT22;53889;50.084;8.646;2022-09-11T01:16:24;16.30;99.90
54846;DHT22;53889;50.084;8.646;2022-09-11T01:18:57;16.30;99.90
54846;DHT22;53889;50.084;8.646;2022-09-11T01:21:40;16.20;99.90
54846;DHT22;53889;50.084;8.646;2022-09-11T01:24:25;16.30;99.90
54846;DHT22;53889;50.084;8.646;2022-09-11T01:27:19;16.30;99.90
54846;DHT22;53889;50.084;8.646;2022-09-11T01:29:54;16.30;99.90
54846;DHT22;53889;50.084;8.646;2022-09-11T01:32:31;16.30;99.90
54846;DHT22;53889;50.084;8.646;2022-09-11T01:35:02;16.30;99.90
54846;DHT22;53889;50.084;8.646;2022-09-11T01:37:37;16.30;99.90
54846;DHT22;53889;50.084;8.646;2022-09-11T01:40:09;16.30;99.90
54846;DHT22;53889;50.084;8.646;2022-09-11T01:42:41;16.40;99.90
54846;DHT22;53889;50.084;8.646;2022-09-11T01:45:10;16.40;99.90
54846;DHT22;53889;50.084;8.646;2022-09-11T01:47:41;16.70;99.90
54846;DHT22;53889;50.084;8.646;2022-09-11T01:50:11;16.50;99.90
54846;DHT22;53889;50.084;8.646;2022-09-11T01:52:44;16.50;99.90
54846;DHT22;53889;50.084;8.646;2022-09-11T01:55:15;16.50;99.90
54846;DHT22;53889;50.084;8.646;2022-09-11T01:57:47;16.40;99.90
54846;DHT22;53889;50.084;8.646;2022-09-11T02:00:15;16.40;99.90
54846;DHT22;53889;50.084;8.646;2022-09-11T02:02:51;16.40;99.90
54846;DHT22;53889;50.084;8.646;2022-09-11T02:05:23;16.40;99.90
54846;DHT22;53889;50.084;8.646;2022-09-11T02:07:55;16.40;99.90
54846;DHT22;53889;50.084;8.646;2022-09-11T02:10:27;16.40;99.90
54846;DHT22;53889;50.084;8.646;2022-09-11T02:13:03;16.30;99.90
54846;DHT22;53889;50.084;8.646;2022-09-11T02:15:35;16.30;99.90
54846;DHT22;53889;50.084;8.646;2022-09-11T02:18:10;16.30;99.90
54846;DHT22;53889;50.084;8.646;2022-09-11T02:20:41;16.20;99.90
54846;DHT22;53889;50.084;8.646;2022-09-11T02:23:10;16.20;99.90
54846;DHT22;53889;50.084;8.646;2022-09-11T02:25:36;16.10;99.90
54846;DHT22;53889;50.084;8.646;2022-09-11T02:28:06;16.00;99.90
54846;DHT22;53889;50.084;8.646;2022-09-11T02:30:32;16.00;99.90
54846;DHT22;53889;50.084;8.646;2022-09-11T02:32:59;15.90;99.90
54846;DHT22;53889;50.084;8.646;2022-09-11T02:35:31;16.50;99.90
54846;DHT22;53889;50.084;8.646;2022-09-11T02:38:07;15.90;99.90
54846;DHT22;53889;50.084;8.646;2022-09-11T02:40:42;15.90;99.90
54846;DHT22;53889;50.084;8.646;2022-09-11T02:43:22;15.90;99.90
54846;DHT22;53889;50.084;8.646;2022-09-11T02:46:13;15.90;99.90
54846;DHT22;53889;50.084;8.646;2022-09-11T02:48:53;15.90;99.90
54846;DHT22;53889;50.084;8.646;2022-09-11T02:51:26;15.90;99.90
54846;DHT22;53889;50.084;8.646;2022-09-11T02:53:59;16.00;99.90
54846;DHT22;53889;50.084;8.646;2022-09-11T02:56:35;16.00;99.90
54846;DHT22;53889;50.084;8.646;2022-09-11T02:59:09;16.00;99.90
54846;DHT22;53889;50.084;8.646;2022-09-11T03:01:46;15.90;99.90
54846;DHT22;53889;50.084;8.646;2022-09-11T03:04:13;15.90;99.90
54846;DHT22;53889;50.084;8.646;2022-09-11T03:06:45;15.90;99.90
54846;DHT22;53889;50.084;8.646;2022-09-11T03:09:13;15.80;99.90
54846;DHT22;53889;50.084;8.646;2022-09-11T03:11:41;15.60;99.90
54846;DHT22;53889;50.084;8.646;2022-09-11T03:14:09;15.30;99.90
54846;DHT22;53889;50.084;8.646;2022-09-11T03:16:38;15.70;99.90
54846;DHT22;53889;50.084;8.646;2022-09-11T03:19:07;15.70;99.90
54846;DHT22;53889;50.084;8.646;2022-09-11T03:21:34;15.70;99.90
54846;DHT22;53889;50.084;8.646;2022-09-11T03:24:01;15.60;99.90
54846;DHT22;53889;50.084;8.646;2022-09-11T03:26:29;15.80;99.90
54846;DHT22;53889;50.084;8.646;2022-09-11T03:28:57;15.80;99.90
54846;DHT22;53889;50.084;8.646;2022-09-11T03:31:26;15.90;99.90
54846;DHT22;53889;50.084;8.646;2022-09-11T03:33:52;15.90;99.90
54846;DHT22;53889;50.084;8.646;2022-09-11T03:36:20;15.90;99.90
54846;DHT22;53889;50.084;8.646;2022-09-11T03:38:47;15.90;99.90
54846;DHT22;53889;50.084;8.646;2022-09-11T03:41:14;15.80;99.90
54846;DHT22;53889;50.084;8.646;2022-09-11T03:43:41;15.80;99.90
54846;DHT22;53889;50.084;8.646;2022-09-11T03:46:08;15.90;99.90
54846;DHT22;53889;50.084;8.646;2022-09-11T03:48:37;15.90;99.90
54846;DHT22;53889;50.084;8.646;2022-09-11T03:51:04;15.90;99.90
54846;DHT22;53889;50.084;8.646;2022-09-11T03:53:31;15.90;99.90
54846;DHT22;53889;50.084;8.646;2022-09-11T03:55:58;15.90;99.90
54846;DHT22;53889;50.084;8.646;2022-09-11T03:58:26;15.80;99.90
54846;DHT22;53889;50.084;8.646;2022-09-11T04:00:53;15.90;99.90
54846;DHT22;53889;50.084;8.646;2022-09-11T04:03:20;15.90;99.90
54846;DHT22;53889;50.084;8.646;2022-09-11T04:05:57;15.90;99.90
54846;DHT22;53889;50.084;8.646;2022-09-11T04:08:25;15.90;99.90
54846;DHT22;53889;50.084;8.646;2022-09-11T04:10:55;17.00;99.90
54846;DHT22;53889;50.084;8.646;2022-09-11T04:13:25;15.90;99.90
54846;DHT22;53889;50.084;8.646;2022-09-11T04:15:52;15.90;99.90
54846;DHT22;53889;50.084;8.646;2022-09-11T04:18:19;15.90;99.90
54846;DHT22;53889;50.084;8.646;2022-09-11T04:20:46;15.90;99.90
54846;DHT22;53889;50.084;8.646;2022-09-11T04:23:14;15.90;99.90
54846;DHT22;53889;50.084;8.646;2022-09-11T04:25:42;15.90;99.90
54846;DHT22;53889;50.084;8.646;2022-09-11T04:28:09;15.90;99.90
54846;DHT22;53889;50.084;8.646;2022-09-11T04:30:37;16.00;99.90
54846;DHT22;53889;50.084;8.646;2022-09-11T04:33:04;16.00;99.90
54846;DHT22;53889;50.084;8.646;2022-09-11T04:35:30;15.90;99.90
54846;DHT22;53889;50.084;8.646;2022-09-11T04:37:59;15.90;99.90
54846;DHT22;53889;50.084;8.646;2022-09-11T04:40:29;15.90;99.90
54846;DHT22;53889;50.084;8.646;2022-09-11T04:42:56;16.00;99.90
54846;DHT22;53889;50.084;8.646;2022-09-11T04:45:22;15.90;99.90
54846;DHT22;53889;50.084;8.646;2022-09-11T04:47:49;16.00;99.90
54846;DHT22;53889;50.084;8.646;2022-09-11T04:50:17;16.00;99.90
54846;DHT22;53889;50.084;8.646;2022-09-11T04:53:04;15.90;99.90
54846;DHT22;53889;50.084;8.646;2022-09-11T04:55:32;15.90;99.90
54846;DHT22;53889;50.084;8.646;2022-09-11T04:57:59;15.80;99.90
54846;DHT22;53889;50.084;8.646;2022-09-11T05:00:26;15.70;99.90
54846;DHT22;53889;50.084;8.646;2022-09-11T05:02:52;15.70;99.90
54846;DHT22;53889;50.084;8.646;2022-09-11T05:05:20;15.70;99.90
54846;DHT22;53889;50.084;8.646;2022-09-11T05:07:48;15.60;99.90
54846;DHT22;53889;50.084;8.646;2022-09-11T05:10:16;15.60;99.90
54846;DHT22;53889;50.084;8.646;2022-09-11T05:12:46;15.60;99.90
54846;DHT22;53889;50.084;8.646;2022-09-11T05:15:14;15.60;99.90
54846;DHT22;53889;50.084;8.646;2022-09-11T05:17:41;15.60;99.90
54846;DHT22;53889;50.084;8.646;2022-09-11T05:20:09;15.60;99.90
54846;DHT22;53889;50.084;8.646;2022-09-11T05:22:36;15.60;99.90
54846;DHT22;53889;50.084;8.646;2022-09-11T05:25:04;15.60;99.90
54846;DHT22;53889;50.084;8.646;2022-09-11T05:27:31;15.70;99.90
54846;DHT22;53889;50.084;8.646;2022-09-11T05:29:59;15.70;99.90
54846;DHT22;53889;50.084;8.646;2022-09-11T05:32:27;15.70;99.90
54846;DHT22;53889;50.084;8.646;2022-09-11T05:34:54;15.70;99.90
54846;DHT22;53889;50.084;8.646;2022-09-11T05:37:21;15.60;99.90
54846;DHT22;53889;50.084;8.646;2022-09-11T05:39:49;15.50;99.90
54846;DHT22;53889;50.084;8.646;2022-09-11T05:42:16;15.50;99.90
54846;DHT22;53889;50.084;8.646;2022-09-11T05:44:50;15.60;99.90
54846;DHT22;53889;50.084;8.646;2022-09-11T05:47:18;15.50;99.90
54846;DHT22;53889;50.084;8.646;2022-09-11T05:49:48;15.50;99.90
54846;DHT22;53889;50.084;8.646;2022-09-11T05:52:15;15.60;99.90
54846;DHT22;53889;50.084;8.646;2022-09-11T05:54:41;15.60;99.90
54846;DHT22;53889;50.084;8.646;2022-09-11T05:57:10;15.70;99.90
54846;DHT22;53889;50.084;8.646;2022-09-11T05:59:37;15.80;99.90
54846;DHT22;53889;50.084;8.646;2022-09-11T06:02:04;15.80;99.90
54846;DHT22;53889;50.084;8.646;2022-09-11T06:04:40;15.80;99.90
54846;DHT22;53889;50.084;8.646;2022-09-11T06:07:07;15.70;99.90
54846;DHT22;53889;50.084;8.646;2022-09-11T06:09:35;15.80;99.90
54846;DHT22;53889;50.084;8.646;2022-09-11T06:12:02;15.80;99.90
54846;DHT22;53889;50.084;8.646;2022-09-11T06:14:29;15.80;99.90
54846;DHT22;53889;50.084;8.646;2022-09-11T06:16:58;15.90;99.90
54846;DHT22;53889;50.084;8.646;2022-09-11T06:19:25;15.90;99.90
54846;DHT22;53889;50.084;8.646;2022-09-11T06:21:55;16.00;99.90
54846;DHT22;53889;50.084;8.646;2022-09-11T06:24:26;16.30;99.90
54846;DHT22;53889;50.084;8.646;2022-09-11T06:26:54;16.60;99.90
54846;DHT22;53889;50.084;8.646;2022-09-11T06:29:21;16.70;99.90
54846;DHT22;53889;50.084;8.646;2022-09-11T06:31:49;16.90;99.90
54846;DHT22;53889;50.084;8.646;2022-09-11T06:34:19;16.90;99.90
54846;DHT22;53889;50.084;8.646;2022-09-11T06:36:46;16.90;99.90
54846;DHT22;53889;50.084;8.646;2022-09-11T06:39:15;17.00;99.90
54846;DHT22;53889;50.084;8.646;2022-09-11T06:41:42;16.90;99.90
54846;DHT22;53889;50.084;8.646;2022-09-11T06:44:12;16.80;99.90
54846;DHT22;53889;50.084;8.646;2022-09-11T06:46:39;16.90;99.90
54846;DHT22;53889;50.084;8.646;2022-09-11T06:49:08;17.20;99.90
54846;DHT22;53889;50.084;8.646;2022-09-11T06:51:55;17.70;99.90
54846;DHT22;53889;50.084;8.646;2022-09-11T06:54:23;18.30;99.90
54846;DHT22;53889;50.084;8.646;2022-09-11T06:56:51;18.60;99.90
54846;DHT22;53889;50.084;8.646;2022-09-11T06:59:18;19.20;99.90
54846;DHT22;53889;50.084;8.646;2022-09-11T07:01:48;20.10;99.90
54846;DHT22;53889;50.084;8.646;2022-09-11T07:04:16;20.20;99.90
54846;DHT22;53889;50.084;8.646;2022-09-11T07:06:42;20.00;99.90
54846;DHT22;53889;50.084;8.646;2022-09-11T07:09:10;19.80;99.90
54846;DHT22;53889;50.084;8.646;2022-09-11T07:11:50;20.10;99.90
54846;DHT22;53889;50.084;8.646;2022-09-11T07:14:19;20.00;99.90
54846;DHT22;53889;50.084;8.646;2022-09-11T07:16:48;20.50;99.90
54846;DHT22;53889;50.084;8.646;2022-09-11T07:19:15;21.00;99.90
54846;DHT22;53889;50.084;8.646;2022-09-11T07:21:43;21.50;99.90
54846;DHT22;53889;50.084;8.646;2022-09-11T07:24:10;22.00;99.90
54846;DHT22;53889;50.084;8.646;2022-09-11T07:26:39;22.10;99.90
54846;DHT22;53889;50.084;8.646;2022-09-11T07:29:13;21.60;99.90
54846;DHT22;53889;50.084;8.646;2022-09-11T07:31:41;21.50;99.90
54846;DHT22;53889;50.084;8.646;2022-09-11T07:34:10;21.50;99.90
54846;DHT22;53889;50.084;8.646;2022-09-11T07:36:37;21.10;99.90
54846;DHT22;53889;50.084;8.646;2022-09-11T07:39:07;20.90;99.90
54846;DHT22;53889;50.084;8.646;2022-09-11T07:41:37;20.50;99.90
54846;DHT22;53889;50.084;8.646;2022-09-11T07:44:13;20.40;99.90
54846;DHT22;53889;50.084;8.646;2022-09-11T07:46:40;20.00;99.90
54846;DHT22;53889;50.084;8.646;2022-09-11T07:49:10;19.90;99.90
54846;DHT22;53889;50.084;8.646;2022-09-11T07:51:39;20.20;99.90
54846;DHT22;53889;50.084;8.646;2022-09-11T07:54:08;20.20;99.90
54846;DHT22;53889;50.084;8.646;2022-09-11T07:56:36;20.20;99.90
54846;DHT22;53889;50.084;8.646;2022-09-11T07:59:06;20.20;99.90
54846;DHT22;53889;50.084;8.646;2022-09-11T08:01:36;20.30;99.90
54846;DHT22;53889;50.084;8.646;2022-09-11T08:04:06;20.30;99.90
54846;DHT22;53889;50.084;8.646;2022-09-11T08:06:36;20.30;99.90
54846;DHT22;53889;50.084;8.646;2022-09-11T08:09:09;20.20;99.90
54846;DHT22;53889;50.084;8.646;2022-09-11T08:11:43;19.90;99.90
54846;DHT22;53889;50.084;8.646;2022-09-11T08:14:11;19.80;99.90
54846;DHT22;53889;50.084;8.646;2022-09-11T08:16:41;19.80;99.90
54846;DHT22;53889;50.084;8.646;2022-09-11T08:19:09;20.00;99.90
54846;DHT22;53889;50.084;8.646;2022-09-11T08:21:41;21.50;99.90
54846;DHT22;53889;50.084;8.646;2022-09-11T08:24:11;21.60;99.90
54846;DHT22;53889;50.084;8.646;2022-09-11T08:26:39;22.30;99.90
54846;DHT22;53889;50.084;8.646;2022-09-11T08:29:06;23.20;99.90
54846;DHT22;53889;50.084;8.646;2022-09-11T08:31:33;24.30;99.50
54846;DHT22;53889;50.084;8.646;2022-09-11T08:34:02;25.00;97.60
54846;DHT22;53889;50.084;8.646;2022-09-11T08:36:29;25.30;96.10
54846;DHT22;53889;50.084;8.646;2022-09-11T08:38:58;24.90;96.60
54846;DHT22;53889;50.084;8.646;2022-09-11T08:41:35;25.50;95.60
54846;DHT22;53889;50.084;8.646;2022-09-11T08:44:13;25.50;94.80
54846;DHT22;53889;50.084;8.646;2022-09-11T08:46:44;25.20;95.00
54846;DHT22;53889;50.084;8.646;2022-09-11T08:49:18;24.70;95.90
54846;DHT22;53889;50.084;8.646;2022-09-11T08:51:47;23.40;98.20
54846;DHT22;53889;50.084;8.646;2022-09-11T08:54:22;23.40;98.30
54846;DHT22;53889;50.084;8.646;2022-09-11T08:56:56;23.20;98.50
54846;DHT22;53889;50.084;8.646;2022-09-11T08:59:33;22.60;99.70
54846;DHT22;53889;50.084;8.646;2022-09-11T09:02:13;22.10;99.60
54846;DHT22;53889;50.084;8.646;2022-09-11T09:04:58;21.60;99.90
54846;DHT22;53889;50.084;8.646;2022-09-11T09:07:32;20.90;99.90
54846;DHT22;53889;50.084;8.646;2022-09-11T09:10:11;20.40;99.90
54846;DHT22;53889;50.084;8.646;2022-09-11T09:12:49;20.00;99.90
54846;DHT22;53889;50.084;8.646;2022-09-11T09:15:25;19.90;99.90
54846;DHT22;53889;50.084;8.646;2022-09-11T09:18:00;19.90;99.90
54846;DHT22;53889;50.084;8.646;2022-09-11T09:20:33;19.80;99.90
54846;DHT22;53889;50.084;8.646;2022-09-11T09:23:05;19.90;99.90
54846;DHT22;53889;50.084;8.646;2022-09-11T09:25:41;20.00;99.90
54846;DHT22;53889;50.084;8.646;2022-09-11T09:28:14;20.20;99.90
54846;DHT22;53889;50.084;8.646;2022-09-11T09:30:48;20.30;99.90
54846;DHT22;53889;50.084;8.646;2022-09-11T09:33:22;20.90;99.90
54846;DHT22;53889;50.084;8.646;2022-09-11T09:35:54;20.50;99.90
54846;DHT22;53889;50.084;8.646;2022-09-11T09:38:26;20.60;99.90
54846;DHT22;53889;50.084;8.646;2022-09-11T09:41:03;20.90;99.90
54846;DHT22;53889;50.084;8.646;2022-09-11T09:43:41;20.80;99.90
54846;DHT22;53889;50.084;8.646;2022-09-11T09:46:16;21.20;99.90
54846;DHT22;53889;50.084;8.646;2022-09-11T09:48:46;21.00;99.90
54846;DHT22;53889;50.084;8.646;2022-09-11T09:51:15;21.00;99.90
54846;DHT22;53889;50.084;8.646;2022-09-11T09:53:45;20.90;99.90
54846;DHT22;53889;50.084;8.646;2022-09-11T09:56:15;21.80;99.90
54846;DHT22;53889;50.084;8.646;2022-09-11T09:58:49;22.90;99.90
54846;DHT22;53889;50.084;8.646;2022-09-11T10:01:43;24.00;97.50
54846;DHT22;53889;50.084;8.646;2022-09-11T10:04:13;25.40;95.90
54846;DHT22;53889;50.084;8.646;2022-09-11T10:06:42;26.10;93.80
54846;DHT22;53889;50.084;8.646;2022-09-11T10:09:21;26.70;92.20
54846;DHT22;53889;50.084;8.646;2022-09-11T10:11:53;27.00;90.10
54846;DHT22;53889;50.084;8.646;2022-09-11T10:14:22;26.90;90.10
54846;DHT22;53889;50.084;8.646;2022-09-11T10:16:50;26.20;89.00
54846;DHT22;53889;50.084;8.646;2022-09-11T10:19:35;25.30;90.10
54846;DHT22;53889;50.084;8.646;2022-09-11T10:22:23;24.70;91.10
54846;DHT22;53889;50.084;8.646;2022-09-11T10:25:02;24.30;92.30
54846;DHT22;53889;50.084;8.646;2022-09-11T10:27:31;24.20;92.30
54846;DHT22;53889;50.084;8.646;2022-09-11T10:30:00;25.00;91.20
54846;DHT22;53889;50.084;8.646;2022-09-11T10:32:27;25.20;90.80
54846;DHT22;53889;50.084;8.646;2022-09-11T10:34:54;26.00;90.10
54846;DHT22;53889;50.084;8.646;2022-09-11T10:37:24;26.80;87.20
54846;DHT22;53889;50.084;8.646;2022-09-11T10:39:59;27.50;84.80
54846;DHT22;53889;50.084;8.646;2022-09-11T10:42:29;28.20;81.90
54846;DHT22;53889;50.084;8.646;2022-09-11T10:45:05;28.60;79.00
54846;DHT22;53889;50.084;8.646;2022-09-11T10:47:35;28.70;78.30
54846;DHT22;53889;50.084;8.646;2022-09-11T10:50:20;27.70;80.10
54846;DHT22;53889;50.084;8.646;2022-09-11T10:53:08;26.60;83.60
54846;DHT22;53889;50.084;8.646;2022-09-11T10:55:42;25.00;88.70
54846;DHT22;53889;50.084;8.646;2022-09-11T10:58:15;24.00;91.00
54846;DHT22;53889;50.084;8.646;2022-09-11T11:00:42;23.60;92.50
54846;DHT22;53889;50.084;8.646;2022-09-11T11:03:12;22.80;95.80
54846;DHT22;53889;50.084;8.646;2022-09-11T11:05:46;22.10;98.40
54846;DHT22;53889;50.084;8.646;2022-09-11T11:08:40;21.50;99.90
54846;DHT22;53889;50.084;8.646;2022-09-11T11:11:19;21.30;99.90
54846;DHT22;53889;50.084;8.646;2022-09-11T11:14:06;21.20;99.90
54846;DHT22;53889;50.084;8.646;2022-09-11T11:16:42;21.10;99.90
54846;DHT22;53889;50.084;8.646;2022-09-11T11:19:24;21.10;99.90
54846;DHT22;53889;50.084;8.646;2022-09-11T11:22:06;21.00;99.90
54846;DHT22;53889;50.084;8.646;2022-09-11T11:24:46;20.80;99.90
54846;DHT22;53889;50.084;8.646;2022-09-11T11:27:37;20.90;99.90
54846;DHT22;53889;50.084;8.646;2022-09-11T11:30:10;21.00;99.90
54846;DHT22;53889;50.084;8.646;2022-09-11T11:35:46;21.10;99.90
54846;DHT22;53889;50.084;8.646;2022-09-11T11:38:19;21.10;99.80
54846;DHT22;53889;50.084;8.646;2022-09-11T11:40:54;21.20;99.80
54846;DHT22;53889;50.084;8.646;2022-09-11T11:43:25;21.30;99.40
54846;DHT22;53889;50.084;8.646;2022-09-11T11:45:56;21.40;99.10
54846;DHT22;53889;50.084;8.646;2022-09-11T11:48:31;21.80;98.50
54846;DHT22;53889;50.084;8.646;2022-09-11T11:51:03;22.20;97.70
54846;DHT22;53889;50.084;8.646;2022-09-11T11:53:35;22.70;97.40
54846;DHT22;53889;50.084;8.646;2022-09-11T11:56:09;23.40;96.50
54846;DHT22;53889;50.084;8.646;2022-09-11T11:58:40;24.00;94.30
54846;DHT22;53889;50.084;8.646;2022-09-11T12:01:16;24.40;93.60
54846;DHT22;53889;50.084;8.646;2022-09-11T12:03:51;25.20;91.70
54846;DHT22;53889;50.084;8.646;2022-09-11T12:06:19;25.70;89.70
54846;DHT22;53889;50.084;8.646;2022-09-11T12:08:46;26.00;88.40
54846;DHT22;53889;50.084;8.646;2022-09-11T12:11:18;26.40;85.60
54846;DHT22;53889;50.084;8.646;2022-09-11T12:13:52;25.00;88.20
54846;DHT22;53889;50.084;8.646;2022-09-11T12:16:24;25.20;89.90
54846;DHT22;53889;50.084;8.646;2022-09-11T12:19:04;25.10;90.00
54846;DHT22;53889;50.084;8.646;2022-09-11T12:21:35;25.30;90.20
54846;DHT22;53889;50.084;8.646;2022-09-11T12:24:16;25.30;90.40
54846;DHT22;53889;50.084;8.646;2022-09-11T12:26:45;24.10;92.10
54846;DHT22;53889;50.084;8.646;2022-09-11T12:32:38;23.80;93.10
54846;DHT22;53889;50.084;8.646;2022-09-11T12:35:16;23.80;92.40
54846;DHT22;53889;50.084;8.646;2022-09-11T12:37:49;23.70;91.70
54846;DHT22;53889;50.084;8.646;2022-09-11T12:40:23;23.40;91.90
54846;DHT22;53889;50.084;8.646;2022-09-11T12:42:57;23.30;91.80
54846;DHT22;53889;50.084;8.646;2022-09-11T12:45:35;23.10;92.20
54846;DHT22;53889;50.084;8.646;2022-09-11T12:48:07;22.90;92.80
54846;DHT22;53889;50.084;8.646;2022-09-11T12:50:35;22.90;93.40
54846;DHT22;53889;50.084;8.646;2022-09-11T12:53:04;22.70;93.70
54846;DHT22;53889;50.084;8.646;2022-09-11T12:55:36;22.30;93.90
54846;DHT22;53889;50.084;8.646;2022-09-11T12:58:24;22.80;94.10
54846;DHT22;53889;50.084;8.646;2022-09-11T13:01:02;23.00;93.70
54846;DHT22;53889;50.084;8.646;2022-09-11T13:03:30;23.20;93.70
54846;DHT22;53889;50.084;8.646;2022-09-11T13:06:00;23.40;93.30
54846;DHT22;53889;50.084;8.646;2022-09-11T13:08:31;23.50;93.20
54846;DHT22;53889;50.084;8.646;2022-09-11T13:14:48;24.10;91.70
54846;DHT22;53889;50.084;8.646;2022-09-11T13:17:22;24.40;91.60
54846;DHT22;53889;50.084;8.646;2022-09-11T13:19:50;24.20;90.80
54846;DHT22;53889;50.084;8.646;2022-09-11T13:22:25;24.30;90.90
54846;DHT22;53889;50.084;8.646;2022-09-11T13:25:05;24.60;88.60
54846;DHT22;53889;50.084;8.646;2022-09-11T13:27:34;24.60;86.80
54846;DHT22;53889;50.084;8.646;2022-09-11T13:30:06;24.80;86.40
54846;DHT22;53889;50.084;8.646;2022-09-11T13:32:34;24.90;86.00
54846;DHT22;53889;50.084;8.646;2022-09-11T13:35:05;24.20;88.80
54846;DHT22;53889;50.084;8.646;2022-09-11T13:37:39;24.10;89.90
54846;DHT22;53889;50.084;8.646;2022-09-11T13:40:17;24.00;88.80
54846;DHT22;53889;50.084;8.646;2022-09-11T13:42:46;24.20;86.70
54846;DHT22;53889;50.084;8.646;2022-09-11T13:45:17;24.50;87.70
54846;DHT22;53889;50.084;8.646;2022-09-11T13:47:45;24.10;87.10
54846;DHT22;53889;50.084;8.646;2022-09-11T13:50:14;24.20;87.70
54846;DHT22;53889;50.084;8.646;2022-09-11T13:52:43;24.20;88.50
54846;DHT22;53889;50.084;8.646;2022-09-11T13:55:14;24.30;88.90
54846;DHT22;53889;50.084;8.646;2022-09-11T13:57:55;24.40;88.50
54846;DHT22;53889;50.084;8.646;2022-09-11T14:00:39;24.40;88.10
54846;DHT22;53889;50.084;8.646;2022-09-11T14:03:15;24.40;87.10
54846;DHT22;53889;50.084;8.646;2022-09-11T14:05:49;24.00;87.50
54846;DHT22;53889;50.084;8.646;2022-09-11T14:08:22;23.80;89.40
54846;DHT22;53889;50.084;8.646;2022-09-11T14:10:52;23.80;90.30
54846;DHT22;53889;50.084;8.646;2022-09-11T14:13:23;23.70;89.80
54846;DHT22;53889;50.084;8.646;2022-09-11T14:15:56;23.80;89.60
54846;DHT22;53889;50.084;8.646;2022-09-11T14:18:28;24.00;89.70
54846;DHT22;53889;50.084;8.646;2022-09-11T14:20:58;24.10;89.60
54846;DHT22;53889;50.084;8.646;2022-09-11T14:23:27;24.20;89.20
54846;DHT22;53889;50.084;8.646;2022-09-11T14:26:09;24.20;89.50
54846;DHT22;53889;50.084;8.646;2022-09-11T14:28:46;24.40;88.80
54846;DHT22;53889;50.084;8.646;2022-09-11T14:31:28;24.50;89.90
54846;DHT22;53889;50.084;8.646;2022-09-11T14:34:05;24.60;89.70
54846;DHT22;53889;50.084;8.646;2022-09-11T14:36:38;24.60;88.50
54846;DHT22;53889;50.084;8.646;2022-09-11T14:39:10;24.40;89.00
54846;DHT22;53889;50.084;8.646;2022-09-11T14:41:40;24.40;88.60
54846;DHT22;53889;50.084;8.646;2022-09-11T14:44:07;24.40;88.80
54846;DHT22;53889;50.084;8.646;2022-09-11T14:46:35;24.10;88.90
54846;DHT22;53889;50.084;8.646;2022-09-11T14:49:03;24.10;89.60
54846;DHT22;53889;50.084;8.646;2022-09-11T14:51:29;24.20;89.90
54846;DHT22;53889;50.084;8.646;2022-09-11T14:53:56;24.00;88.80
54846;DHT22;53889;50.084;8.646;2022-09-11T14:56:23;24.10;89.60
54846;DHT22;53889;50.084;8.646;2022-09-11T14:58:50;24.00;89.40
54846;DHT22;53889;50.084;8.646;2022-09-11T15:01:18;23.90;88.60
54846;DHT22;53889;50.084;8.646;2022-09-11T15:03:46;23.90;88.90
54846;DHT22;53889;50.084;8.646;2022-09-11T15:06:16;24.10;89.80
54846;DHT22;53889;50.084;8.646;2022-09-11T15:08:43;24.20;88.70
54846;DHT22;53889;50.084;8.646;2022-09-11T15:11:10;24.20;87.50
54846;DHT22;53889;50.084;8.646;2022-09-11T15:13:37;24.20;85.80
54846;DHT22;53889;50.084;8.646;2022-09-11T15:16:04;24.10;86.80
54846;DHT22;53889;50.084;8.646;2022-09-11T15:18:31;24.10;87.60
54846;DHT22;53889;50.084;8.646;2022-09-11T15:21:00;24.00;87.60
54846;DHT22;53889;50.084;8.646;2022-09-11T15:23:27;23.80;89.30
54846;DHT22;53889;50.084;8.646;2022-09-11T15:25:55;23.80;90.20
54846;DHT22;53889;50.084;8.646;2022-09-11T15:28:26;23.70;90.60
54846;DHT22;53889;50.084;8.646;2022-09-11T15:30:54;23.50;90.90
54846;DHT22;53889;50.084;8.646;2022-09-11T15:33:22;23.50;91.10
54846;DHT22;53889;50.084;8.646;2022-09-11T15:35:49;23.40;91.30
54846;DHT22;53889;50.084;8.646;2022-09-11T15:38:17;23.40;91.60
54846;DHT22;53889;50.084;8.646;2022-09-11T15:40:50;23.20;91.60
54846;DHT22;53889;50.084;8.646;2022-09-11T15:43:18;23.20;91.70
54846;DHT22;53889;50.084;8.646;2022-09-11T15:45:44;23.20;91.90
54846;DHT22;53889;50.084;8.646;2022-09-11T15:48:11;23.20;91.70
54846;DHT22;53889;50.084;8.646;2022-09-11T15:50:39;23.30;91.70
54846;DHT22;53889;50.084;8.646;2022-09-11T15:53:06;23.20;91.80
54846;DHT22;53889;50.084;8.646;2022-09-11T15:55:35;23.30;91.90
54846;DHT22;53889;50.084;8.646;2022-09-11T15:58:02;23.20;92.00
54846;DHT22;53889;50.084;8.646;2022-09-11T16:00:29;23.30;92.00
54846;DHT22;53889;50.084;8.646;2022-09-11T16:02:55;23.20;92.10
54846;DHT22;53889;50.084;8.646;2022-09-11T16:05:22;23.10;92.10